Time;durP1;ratioP1;P1;durP2;ratioP2;P2;SDS_P1;SDS_P2;PMS_P1;PMS_P2;Temp;Humidity;BMP_temperature;BMP_pressure;BME280_temperature;BME280_humidity;BME280_pressure;Samples;Min_cycle;Max_cycle;Signal;HPM_P1;HPM_P2
2021/12/03 00:00:17;;;;;;;2.63;1.67;;;5.00;69.80;;;;;;4967099;28;20027;-93
2021/12/03 00:02:43;;;;;;;3.35;0.80;;;;;;;;;;4970374;28;20031;-92
2021/12/03 00:05:10;;;;;;;1.35;1.10;;;;;;;;;;4969437;28;20036;-93
2021/12/03 00:07:38;;;;;;;6.88;1.45;;;;;;;;;;4953906;29;20038;-93
2021/12/03 00:10:07;;;;;;;5.22;1.65;;;;;;;;;;4973752;28;20073;-93
2021/12/03 00:12:33;;;;;;;1.48;1.00;;;;;;;;;;4973334;28;20077;-93
2021/12/03 00:14:59;;;;;;;0.75;0.68;;;;;;;;;;4973485;28;20121;-93
2021/12/03 00:17:25;;;;;;;1.77;1.35;;;;;;;;;;4969058;28;20500;-94
2021/12/03 00:19:51;;;;;;;2.50;1.13;;;;;;;;;;4956294;28;20039;-93
2021/12/03 00:22:17;;;;;;;1.90;1.75;;;;;;;;;;4974119;28;20031;-93
2021/12/03 00:24:43;;;;;;;4.65;1.42;;;;;;;;;;4957997;28;20039;-94
2021/12/03 00:27:09;;;;;;;1.25;1.20;;;;;;;;;;4967802;28;20508;-94
2021/12/03 00:29:35;;;;;;;9.43;0.77;;;;;;;;;;4968967;28;20031;-93
2021/12/03 00:32:01;;;;;;;3.28;1.30;;;;;;;;;;4972559;28;20571;-94
2021/12/03 00:34:27;;;;;;;2.47;1.30;;;;;;;;;;4974277;28;20047;-93
2021/12/03 00:36:54;;;;;;;5.63;1.55;;;5.00;69.30;;;;;;4973703;28;20109;-94
2021/12/03 00:39:20;;;;;;;;;;;5.20;69.20;;;;;;4961884;28;20413;-94
2021/12/03 00:41:49;;;;;;;4.75;1.10;;;;;;;;;;4958385;28;19910;-94
2021/12/03 00:44:15;;;;;;;1.33;1.20;;;;;;;;;;4955132;28;20540;-93
2021/12/03 00:46:41;;;;;;;8.52;0.93;;;;;;;;;;4953814;29;20068;-93
2021/12/03 00:49:07;;;;;;;2.45;2.25;;;;;;;;;;4971657;28;20041;-92
2021/12/03 00:51:33;;;;;;;1.77;1.05;;;;;;;;;;4965014;28;20050;-93
2021/12/03 00:53:59;;;;;;;1.25;1.02;;;;;;;;;;4966265;28;20023;-94
2021/12/03 00:56:25;;;;;;;1.98;1.17;;;;;;;;;;4974036;28;20042;-94
2021/12/03 00:58:51;;;;;;;0.55;0.55;;;;;;;;;;4973770;28;20058;-94
2021/12/03 01:01:18;;;;;;;1.27;1.08;;;;;;;;;;4971343;28;20031;-94
2021/12/03 01:03:44;;;;;;;2.30;2.17;;;;;;;;;;4971049;28;20026;-94
2021/12/03 01:06:10;;;;;;;5.55;1.05;;;;;;;;;;4970856;28;20045;-94
2021/12/03 01:08:36;;;;;;;0.68;0.68;;;;;;;;;;4975403;28;20019;-94
2021/12/03 01:11:04;;;;;;;0.75;0.75;;;5.00;68.80;;;;;;4972497;28;20031;-94
2021/12/03 01:13:30;;;;;;;0.65;0.50;;;;;;;;;;4951323;28;20023;-95
2021/12/03 01:15:56;;;;;;;1.13;1.02;;;;;;;;;;4969056;28;20614;-94
2021/12/03 01:18:22;;;;;;;3.30;0.85;;;;;;;;;;4955698;28;20113;-93
2021/12/03 01:20:49;;;;;;;0.63;0.63;;;;;;;;;;4967238;28;20031;-93
2021/12/03 01:23:15;;;;;;;1.00;0.80;;;;;;;;;;4976299;28;20034;-92
2021/12/03 01:25:41;;;;;;;2.88;1.08;;;;;;;;;;4977430;28;20424;-94
2021/12/03 01:28:07;;;;;;;0.75;0.70;;;;;;;;;;4982569;28;21214;-92
2021/12/03 01:30:33;;;;;;;1.27;0.70;;;;;;;;;;4959768;28;20038;-93
2021/12/03 01:33:01;;;;;;;6.38;1.00;;;5.00;70.30;;;;;;4967605;28;20031;-95
2021/12/03 01:35:28;;;;;;;1.70;1.08;;;5.00;69.80;;;;;;4972436;28;20031;-93
2021/12/03 01:37:55;;;;;;;2.08;1.23;;;4.90;70.50;;;;;;4956278;28;20034;-94
2021/12/03 01:40:22;;;;;;;3.00;1.55;;;;;;;;;;4970718;28;20117;-94
2021/12/03 01:42:48;;;;;;;5.60;1.08;;;;;;;;;;4960958;28;20045;-93
2021/12/03 01:45:26;;;;;;;6.05;1.10;;;5.20;68.80;;;;;;4968483;28;20043;-95
2021/12/03 01:47:54;;;;;;;1.00;0.90;;;5.30;69.10;;;;;;4966539;28;20058;-94
2021/12/03 01:50:20;;;;;;;;;;;;;;;;;;4958769;28;20019;-94
2021/12/03 01:52:46;;;;;;;10.68;1.02;;;;;;;;;;4972558;28;19909;-93
2021/12/03 01:55:12;;;;;;;1.58;1.08;;;5.30;69.70;;;;;;4968892;28;20474;-94
2021/12/03 01:57:39;;;;;;;1.67;0.97;;;;;;;;;;4972672;28;20050;-94
2021/12/03 02:00:14;;;;;;;1.05;0.88;;;;;;;;;;4984108;28;20034;-94
2021/12/03 02:02:40;;;;;;;0.70;0.70;;;;;;;;;;4979305;28;20030;-94
2021/12/03 02:05:06;;;;;;;1.80;1.70;;;;;;;;;;4977424;28;20054;-94
2021/12/03 02:07:32;;;;;;;4.55;1.02;;;;;;;;;;4975644;28;20019;-93
2021/12/03 02:09:58;;;;;;;3.53;1.92;;;;;;;;;;4976611;28;20033;-94
2021/12/03 02:12:24;;;;;;;2.80;1.98;;;;;;;;;;4976132;28;20130;-93
2021/12/03 02:14:50;;;;;;;1.08;0.73;;;;;;;;;;4975424;28;20029;-95
2021/12/03 02:17:16;;;;;;;1.20;0.93;;;;;;;;;;4970844;28;20031;-94
2021/12/03 02:19:43;;;;;;;2.60;1.23;;;;;;;;;;4957217;29;20020;-94
2021/12/03 02:22:09;;;;;;;1.75;1.65;;;;;;;;;;4966727;28;20034;-94
2021/12/03 02:24:36;;;;;;;2.63;2.00;;;;;;;;;;4975164;28;20019;-93
2021/12/03 02:27:02;;;;;;;2.22;1.20;;;;;;;;;;4967433;28;20045;-94
2021/12/03 02:29:28;;;;;;;2.38;1.30;;;;;;;;;;4983014;28;20043;-95
2021/12/03 02:31:54;;;;;;;1.23;1.08;;;;;;;;;;4974939;28;20669;-93
2021/12/03 02:34:20;;;;;;;2.45;1.45;;;;;;;;;;4974086;28;20033;-95
2021/12/03 02:36:46;;;;;;;1.85;1.27;;;;;;;;;;4974455;28;20475;-94
2021/12/03 02:39:12;;;;;;;1.00;0.95;;;;;;;;;;4963773;28;20091;-94
2021/12/03 02:41:38;;;;;;;1.77;1.40;;;;;;;;;;4963273;28;20035;-95
2021/12/03 02:44:05;;;;;;;2.22;1.48;;;;;;;;;;4976119;28;20574;-93
2021/12/03 02:46:31;;;;;;;1.95;1.75;;;;;;;;;;4975058;28;20026;-95
2021/12/03 02:48:57;;;;;;;1.15;1.00;;;;;;;;;;4968724;28;20031;-94
2021/12/03 02:51:23;;;;;;;2.20;1.52;;;;;;;;;;4962344;28;20189;-94
2021/12/03 02:53:49;;;;;;;0.65;0.65;;;;;;;;;;4956235;28;20077;-95
2021/12/03 02:56:14;;;;;;;1.40;1.15;;;;;;;;;;4972284;28;20134;-94
2021/12/03 02:58:40;;;;;;;0.70;0.70;;;;;;;;;;4976374;28;20102;-94
2021/12/03 03:01:08;;;;;;;1.50;1.20;;;;;;;;;;4975673;28;20514;-94
2021/12/03 03:03:35;;;;;;;2.13;0.93;;;;;;;;;;4983201;28;20098;-93
2021/12/03 03:06:03;;;;;;;0.90;0.90;;;4.80;70.50;;;;;;4979516;28;20054;-94
2021/12/03 03:08:29;;;;;;;1.13;1.05;;;;;;;;;;4975667;28;20038;-94
2021/12/03 03:10:57;;;;;;;0.85;0.85;;;4.90;71.90;;;;;;4974425;28;20129;-94
2021/12/03 03:13:23;;;;;;;2.45;1.30;;;;;;;;;;4958748;28;20487;-94
2021/12/03 03:15:49;;;;;;;1.50;0.75;;;;;;;;;;4974596;28;20050;-93
2021/12/03 03:18:20;;;;;;;1.42;1.33;;;;;;;;;;4965274;28;20031;-96
2021/12/03 03:20:47;;;;;;;1.25;1.15;;;;;;;;;;4976891;28;20054;-94
2021/12/03 03:23:13;;;;;;;1.20;1.10;;;;;;;;;;4960146;28;20034;-94
2021/12/03 03:25:43;;;;;;;1.45;0.95;;;;;;;;;;4974284;28;20023;-94
2021/12/03 03:28:10;;;;;;;1.02;0.80;;;;;;;;;;4961433;28;20027;-94
2021/12/03 03:30:38;;;;;;;1.02;0.82;;;5.00;70.00;;;;;;4974237;28;20097;-94
2021/12/03 03:33:05;;;;;;;5.18;1.70;;;;;;;;;;4962914;28;20035;-93
2021/12/03 03:35:31;;;;;;;2.05;1.95;;;5.10;69.30;;;;;;4962464;28;20027;-93
2021/12/03 03:37:57;;;;;;;1.35;1.25;;;;;;;;;;4956144;28;20027;-94
2021/12/03 03:40:23;;;;;;;1.45;1.35;;;;;;;;;;4956183;29;20101;-93
2021/12/03 03:42:49;;;;;;;3.63;2.25;;;;;;;;;;4972821;28;20031;-94
2021/12/03 03:45:17;;;;;;;3.13;2.25;;;;;;;;;;4971655;28;20047;-93
2021/12/03 03:47:44;;;;;;;5.00;2.85;;;;;;;;;;4953905;28;20027;-95
2021/12/03 03:50:11;;;;;;;3.03;1.37;;;4.80;71.50;;;;;;4969712;28;20034;-95
2021/12/03 03:52:39;;;;;;;2.50;1.60;;;;;;;;;;4974730;28;20305;-93
2021/12/03 03:55:05;;;;;;;;;;;;;;;;;;4973905;28;20025;-94
2021/12/03 03:57:31;;;;;;;4.00;2.67;;;;;;;;;;4965428;28;20001;-94
2021/12/03 03:59:57;;;;;;;2.15;1.70;;;;;;;;;;4968037;28;20057;-93
2021/12/03 04:02:23;;;;;;;2.30;1.95;;;;;;;;;;4976446;28;20472;-94
2021/12/03 04:04:49;;;;;;;2.83;1.83;;;;;;;;;;4974281;28;20113;-95
2021/12/03 04:07:15;;;;;;;4.88;2.67;;;;;;;;;;4971335;28;20511;-94
2021/12/03 04:09:41;;;;;;;1.92;1.45;;;;;;;;;;4973544;28;20037;-94
2021/12/03 04:12:07;;;;;;;8.25;1.55;;;;;;;;;;4973335;28;20030;-94
2021/12/03 04:14:34;;;;;;;4.50;2.20;;;;;;;;;;4964384;28;20136;-93
2021/12/03 04:17:00;;;;;;;2.42;2.15;;;;;;;;;;4954803;28;20106;-93
2021/12/03 04:19:26;;;;;;;1.45;1.17;;;;;;;;;;4974640;28;20023;-94
2021/12/03 04:21:52;;;;;;;1.92;1.75;;;;;;;;;;4960666;28;20031;-93
2021/12/03 04:24:18;;;;;;;3.97;2.88;;;;;;;;;;4972033;28;20031;-93
2021/12/03 04:26:44;;;;;;;5.70;1.40;;;;;;;;;;4971091;28;20482;-94
2021/12/03 04:29:10;;;;;;;2.70;1.55;;;;;;;;;;4969994;28;20126;-94
2021/12/03 04:31:36;;;;;;;3.38;1.70;;;;;;;;;;4973658;28;20042;-94
2021/12/03 04:34:02;;;;;;;1.50;1.40;;;;;;;;;;4965896;28;20121;-93
2021/12/03 04:36:28;;;;;;;4.28;3.13;;;;;;;;;;4972566;28;20081;-94
2021/12/03 04:38:54;;;;;;;1.65;1.55;;;;;;;;;;4973492;28;20023;-93
2021/12/03 04:41:20;;;;;;;8.60;1.90;;;;;;;;;;4974264;28;20420;-93
2021/12/03 04:43:47;;;;;;;2.53;2.05;;;;;;;;;;4972829;28;20137;-94
2021/12/03 04:46:13;;;;;;;2.70;1.55;;;;;;;;;;4954220;28;20035;-94
2021/12/03 04:48:39;;;;;;;3.85;1.70;;;;;;;;;;4968816;28;20029;-93
2021/12/03 04:51:05;;;;;;;1.25;1.08;;;;;;;;;;4964653;28;20035;-94
2021/12/03 04:53:31;;;;;;;9.65;2.00;;;;;;;;;;4955152;28;20237;-93
2021/12/03 04:55:57;;;;;;;2.70;1.70;;;;;;;;;;4956292;28;20031;-93
2021/12/03 04:58:23;;;;;;;2.33;1.98;;;;;;;;;;4969953;28;20028;-94
2021/12/03 05:00:53;;;;;;;2.88;1.85;;;;;;;;;;4969398;28;20023;-95
2021/12/03 05:03:23;;;;;;;3.05;1.80;;;4.40;73.80;;;;;;4979518;28;20101;-93
2021/12/03 05:05:57;;;;;;;1.35;1.20;;;;;;;;;;4984389;28;20034;-93
2021/12/03 05:08:28;;;;;;;2.30;1.77;;;;;;;;;;4970899;28;20476;-95
2021/12/03 05:10:54;;;;;;;2.63;1.88;;;;;;;;;;4972396;28;20503;-92
2021/12/03 05:13:22;;;;;;;2.03;1.77;;;;;;;;;;4973956;28;20460;-94
2021/12/03 05:15:48;;;;;;;4.15;2.50;;;;;;;;;;4973119;28;20038;-93
2021/12/03 05:18:15;;;;;;;1.67;1.30;;;;;;;;;;4974273;28;20027;-92
2021/12/03 05:20:42;;;;;;;3.90;2.10;;;;;;;;;;4974315;28;20031;-93
2021/12/03 05:23:09;;;;;;;2.42;1.60;;;;;;;;;;4972332;28;20130;-93
2021/12/03 05:25:35;;;;;;;1.80;1.67;;;;;;;;;;4955009;29;20031;-92
2021/12/03 05:28:01;;;;;;;3.30;2.40;;;;;;;;;;4972259;28;20034;-94
2021/12/03 05:30:27;;;;;;;1.48;1.38;;;;;;;;;;4972670;28;20030;-93
2021/12/03 05:32:53;;;;;;;3.42;2.40;;;;;;;;;;4973181;28;20027;-94
2021/12/03 05:35:19;;;;;;;2.08;1.30;;;;;;;;;;4970131;28;20023;-93
2021/12/03 05:37:46;;;;;;;3.90;2.17;;;;;;;;;;4954743;28;20043;-94
2021/12/03 05:40:13;;;;;;;2.20;2.00;;;;;;;;;;4975475;28;20085;-94
2021/12/03 05:42:39;;;;;;;2.88;1.40;;;;;;;;;;4981191;28;20577;-93
2021/12/03 05:45:08;;;;;;;2.33;2.13;;;4.70;71.40;;;;;;4971465;28;20058;-94
2021/12/03 05:47:34;;;;;;;3.55;2.85;;;;;;;;;;4972401;28;20034;-93
2021/12/03 05:50:00;;;;;;;2.10;1.65;;;;;;;;;;4973791;28;20373;-94
2021/12/03 05:52:27;;;;;;;12.73;2.33;;;;;;;;;;4973924;28;20042;-95
2021/12/03 05:54:53;;;;;;;3.42;2.17;;;;;;;;;;4973714;28;20034;-94
2021/12/03 05:57:19;;;;;;;1.48;1.38;;;;;;;;;;4973101;28;20693;-94
2021/12/03 05:59:45;;;;;;;4.78;1.92;;;;;;;;;;4972370;28;20038;-93
2021/12/03 06:02:11;;;;;;;1.00;1.00;;;;;;;;;;4972691;28;20074;-93
2021/12/03 06:04:37;;;;;;;1.55;1.08;;;;;;;;;;4973747;28;20113;-91
2021/12/03 06:07:04;;;;;;;8.35;1.52;;;;;;;;;;4971263;28;20047;-94
2021/12/03 06:09:30;;;;;;;2.70;1.40;;;;;;;;;;4974989;28;20077;-93
2021/12/03 06:11:56;;;;;;;2.90;1.90;;;;;;;;;;4973175;28;20030;-93
2021/12/03 06:14:22;;;;;;;4.50;1.80;;;;;;;;;;4972035;28;20492;-93
2021/12/03 06:16:48;;;;;;;3.92;3.13;;;;;;;;;;4977787;28;20034;-93
2021/12/03 06:19:14;;;;;;;2.33;1.52;;;;;;;;;;4976427;28;20085;-94
2021/12/03 06:21:40;;;;;;;2.85;1.02;;;;;;;;;;4978266;28;20125;-93
2021/12/03 06:24:06;;;;;;;2.15;1.98;;;;;;;;;;4963623;28;20130;-94
2021/12/03 06:26:32;;;;;;;4.20;2.25;;;;;;;;;;4958733;28;20030;-92
2021/12/03 06:28:58;;;;;;;2.17;1.55;;;;;;;;;;4973450;28;20015;-93
2021/12/03 06:31:24;;;;;;;4.07;1.55;;;;;;;;;;4961077;28;20038;-92
2021/12/03 06:33:50;;;;;;;5.07;1.73;;;;;;;;;;4982885;28;20038;-91
2021/12/03 06:36:16;;;;;;;2.42;1.35;;;;;;;;;;4957578;28;20039;-93
2021/12/03 06:38:42;;;;;;;1.40;1.30;;;;;;;;;;4962678;28;20030;-92
2021/12/03 06:41:09;;;;;;;1.83;1.27;;;;;;;;;;4972270;28;20393;-92
2021/12/03 06:43:35;;;;;;;1.58;1.48;;;;;;;;;;4973993;28;20404;-93
2021/12/03 06:46:01;;;;;;;4.72;2.20;;;;;;;;;;4960821;28;20034;-93
2021/12/03 06:48:27;;;;;;;4.15;2.15;;;;;;;;;;4980542;28;20023;-93
2021/12/03 06:50:53;;;;;;;5.03;2.88;;;;;;;;;;4981681;28;20031;-93
2021/12/03 06:53:27;;;;;;;7.03;2.75;;;;;;;;;;4981003;28;20034;-92
2021/12/03 06:55:57;;;;;;;4.93;2.92;;;;;;;;;;4975193;28;20077;-94
2021/12/03 06:58:23;;;;;;;4.35;1.80;;;;;;;;;;4976697;28;20457;-90
2021/12/03 07:00:51;;;;;;;1.58;1.48;;;;;;;;;;4957647;28;20035;-90
2021/12/03 07:03:17;;;;;;;6.63;2.78;;;;;;;;;;4967339;28;20600;-91
2021/12/03 07:05:43;;;;;;;3.90;2.55;;;;;;;;;;4969520;28;20407;-91
2021/12/03 07:08:10;;;;;;;2.50;2.10;;;;;;;;;;4974680;28;20109;-91
2021/12/03 07:10:36;;;;;;;6.80;3.45;;;;;;;;;;4973356;28;20031;-89
2021/12/03 07:13:02;;;;;;;4.47;3.10;;;;;;;;;;4963637;28;20058;-90
2021/12/03 07:15:28;;;;;;;2.72;2.17;;;;;;;;;;4974430;28;20085;-87
2021/12/03 07:17:54;;;;;;;6.30;2.75;;;;;;;;;;4980452;28;20045;-91
2021/12/03 07:20:23;;;;;;;8.05;3.67;;;3.70;72.60;;;;;;4986751;28;20026;-91
2021/12/03 07:22:50;;;;;;;4.65;3.28;;;;;;;;;;4975006;28;20034;-91
2021/12/03 07:25:16;;;;;;;9.48;3.15;;;;;;;;;;4964747;28;20512;-92
2021/12/03 07:27:42;;;;;;;5.22;3.17;;;;;;;;;;4970073;28;20030;-91
2021/12/03 07:30:09;;;;;;;10.15;3.42;;;;;;;;;;4972564;28;20066;-91
2021/12/03 07:32:37;;;;;;;8.23;4.38;;;;;;;;;;4973997;28;20090;-92
2021/12/03 07:35:03;;;;;;;5.13;4.03;;;;;;;;;;4972261;28;20019;-92
2021/12/03 07:37:29;;;;;;;6.32;4.38;;;;;;;;;;4958780;28;20548;-92
2021/12/03 07:39:57;;;;;;;4.75;3.17;;;;;;;;;;4956598;28;20042;-92
2021/12/03 07:42:23;;;;;;;5.55;2.75;;;;;;;;;;4973323;28;20023;-92
2021/12/03 07:44:49;;;;;;;13.05;4.53;;;;;;;;;;4974395;28;20102;-92
2021/12/03 07:47:15;;;;;;;9.05;4.50;;;;;;;;;;4970662;28;20106;-93
2021/12/03 07:49:41;;;;;;;7.72;3.03;;;;;;;;;;4974491;28;20026;-92
2021/12/03 07:52:11;;;;;;;4.32;2.58;;;4.00;72.40;;;;;;4974109;28;20041;-91
2021/12/03 07:54:37;;;;;;;4.22;2.97;;;;;;;;;;4944859;28;20031;-92
2021/12/03 07:57:04;;;;;;;2.13;1.83;;;;;;;;;;4966683;28;20027;-92
2021/12/03 07:59:30;;;;;;;1.80;1.58;;;;;;;;;;4973500;28;20113;-92
2021/12/03 08:01:56;;;;;;;3.92;2.22;;;;;;;;;;4973577;28;20094;-93
2021/12/03 08:04:22;;;;;;;6.63;2.85;;;;;;;;;;4973410;28;20166;-90
2021/12/03 08:06:52;;;;;;;4.88;3.03;;;;;;;;;;4973849;28;20053;-92
2021/12/03 08:09:18;;;;;;;7.03;3.97;;;;;;;;;;4973216;28;20139;-92
2021/12/03 08:11:44;;;;;;;5.50;3.17;;;;;;;;;;4973160;28;20039;-92
2021/12/03 08:14:10;;;;;;;9.68;4.95;;;;;;;;;;4955537;28;20424;-92
2021/12/03 08:16:37;;;;;;;6.07;3.78;;;;;;;;;;4959234;28;20035;-92
2021/12/03 08:19:03;;;;;;;4.28;2.65;;;;;;;;;;4967031;28;20026;-90
2021/12/03 08:21:29;;;;;;;3.97;2.40;;;;;;;;;;4968402;28;20038;-92
2021/12/03 08:23:56;;;;;;;5.82;2.45;;;;;;;;;;4968656;28;20027;-90
2021/12/03 08:26:22;;;;;;;2.40;2.20;;;;;;;;;;4960058;28;20563;-92
2021/12/03 08:28:48;;;;;;;4.80;2.83;;;;;;;;;;4969127;28;20026;-91
2021/12/03 08:31:15;;;;;;;2.67;1.60;;;;;;;;;;4969127;28;20089;-91
2021/12/03 08:33:44;;;;;;;5.80;3.03;;;;;;;;;;4969492;28;20046;-95
2021/12/03 08:36:10;;;;;;;2.50;1.73;;;;;;;;;;4966164;28;20072;-96
2021/12/03 08:38:37;;;;;;;5.53;2.78;;;;;;;;;;4961578;28;20023;-92
2021/12/03 08:41:04;;;;;;;4.30;2.60;;;;;;;;;;4969400;28;20093;-90
2021/12/03 08:43:30;;;;;;;3.65;2.13;;;;;;;;;;4969673;28;20062;-90
2021/12/03 08:45:56;;;;;;;2.60;1.88;;;;;;;;;;4968157;28;20031;-89
2021/12/03 08:48:23;;;;;;;7.57;1.83;;;;;;;;;;4959783;28;20423;-84
2021/12/03 08:51:07;;;;;;;3.60;2.72;;;;;;;;;;4963983;28;20097;-85
2021/12/03 08:56:17;;;;;;;2.30;2.00;;;;;;;;;;4962006;28;20037;-87
2021/12/03 08:58:44;;;;;;;4.82;2.78;;;;;;;;;;4965950;28;20050;-88
2021/12/03 09:01:12;;;;;;;5.57;3.40;;;;;;;;;;4964218;28;20026;-90
2021/12/03 09:03:38;;;;;;;5.93;3.08;;;;;;;;;;4967820;28;20160;-92
2021/12/03 09:06:04;;;;;;;12.60;3.33;;;;;;;;;;4968356;28;20077;-90
2021/12/03 09:08:30;;;;;;;2.65;1.50;;;;;;;;;;4950526;28;20495;-90
2021/12/03 09:10:56;;;;;;;6.78;2.38;;;;;;;;;;4972557;28;20560;-89
2021/12/03 09:13:23;;;;;;;1.63;1.02;;;9.30;50.90;;;;;;4960878;28;20172;-93
2021/12/03 09:16:00;;;;;;;5.82;2.38;;;;;;;;;;4970437;28;20057;-94
2021/12/03 09:21:17;;;;;;;3.67;3.10;;;;;;;;;;4968024;28;20038;-93
2021/12/03 09:26:16;;;;;;;7.78;2.72;;;;;;;;;;4971633;28;20031;-91
2021/12/03 09:28:45;;;;;;;4.55;2.83;;;;;;;;;;4967747;28;20463;-91
2021/12/03 09:31:12;;;;;;;2.35;1.83;;;;;;;;;;4966101;28;20566;-91
2021/12/03 09:33:41;;;;;;;2.70;1.65;;;9.30;52.30;;;;;;4970107;28;20098;-90
2021/12/03 09:36:09;;;;;;;3.08;2.17;;;;;;;;;;4969084;28;20041;-92
2021/12/03 09:38:36;;;;;;;8.35;2.17;;;;;;;;;;4968025;28;20129;-91
2021/12/03 09:41:08;;;;;;;2.45;1.55;;;9.90;50.10;;;;;;4957779;28;20030;-90
2021/12/03 09:43:41;;;;;;;2.70;2.13;;;10.10;50.70;;;;;;4977035;28;20046;-91
2021/12/03 09:48:58;;;;;;;2.65;2.05;;;;;;;;;;4970691;28;20035;-92
2021/12/03 09:51:26;;;;;;;4.15;2.13;;;;;;;;;;4970764;28;20042;-91
2021/12/03 09:56:37;;;;;;;6.03;2.08;;;;;;;;;;4971164;28;20050;-91
2021/12/03 10:02:08;;;;;;;3.75;2.03;;;;;;;;;;4975123;28;20054;-90
2021/12/03 10:21:05;;;;;;;1.98;1.60;;;;;;;;;;4920286;29;20040;-94
2021/12/03 10:42:21;;;;;;;2.95;1.90;;;9.90;50.70;;;;;;4840113;29;20031;-93
2021/12/03 10:45:21;;;;;;;7.00;1.75;;;;;;;;;;4843248;29;20106;-93
2021/12/03 10:48:07;;;;;;;2.50;1.98;;;;;;;;;;4839549;29;20029;-94
2021/12/03 11:47:58;;;;;;;1.58;1.48;;;8.40;53.20;;;;;;4964208;28;20035;-92
2021/12/03 13:16:02;;;;;;;3.03;2.20;;;;;;;;;;4965234;28;20047;-87
2021/12/03 14:00:52;;;;;;;2.50;1.48;;;;;;;;;;4936052;29;20066;-94
2021/12/03 14:55:34;;;;;;;6.15;3.30;;;;;;;;;;4874124;29;20119;-88
2021/12/03 14:58:32;;;;;;;3.45;2.08;;;8.10;51.70;;;;;;4858984;29;20056;-87
2021/12/03 15:00:57;;;;;;;10.00;2.40;;;;;;;;;;4872899;29;20502;-87
2021/12/03 15:06:28;;;;;;;0.93;0.80;;;;;;;;;;4869543;29;20040;-88
2021/12/03 15:24:40;;;;;;;1.48;1.13;;;;;;;;;;4873061;29;20037;-88
2021/12/03 15:57:00;;;;;;;1.92;1.10;;;;;;;;;;4966959;28;21666;-88
2021/12/03 16:04:38;;;;;;;5.35;1.55;;;;;;;;;;4961819;28;20403;-91
2021/12/03 16:12:08;;;;;;;3.55;2.05;;;;;;;;;;4975062;28;20075;-90
2021/12/03 16:27:42;;;;;;;3.85;2.38;;;;;;;;;;4970302;28;20518;-90
2021/12/03 16:52:03;;;;;;;12.30;6.35;;;;;;;;;;4886416;29;20057;-89
2021/12/03 16:54:36;;;;;;;6.22;2.85;;;;;;;;;;4862435;29;20029;-90
2021/12/03 16:57:03;;;;;;;4.82;3.67;;;;;;;;;;4878924;29;20123;-89
2021/12/03 16:59:29;;;;;;;4.22;3.03;;;;;;;;;;4885488;29;20036;-89
2021/12/03 17:14:12;;;;;;;7.03;3.95;;;;;;;;;;4917354;29;20199;-90
2021/12/03 17:44:28;;;;;;;30.05;7.30;;;;;;;;;;4957502;28;20095;-90
2021/12/03 17:49:33;;;;;;;3.67;3.25;;;;;;;;;;4949583;28;20086;-91
2021/12/03 17:52:09;;;;;;;7.65;2.70;;;;;;;;;;4947495;28;20412;-91
2021/12/03 17:54:57;;;;;;;2.50;1.30;;;;;;;;;;4960205;28;20035;-91
2021/12/03 17:59:53;;;;;;;2.58;1.63;;;;;;;;;;4956466;28;20039;-90
2021/12/03 18:02:41;;;;;;;12.57;1.50;;;;;;;;;;4955081;28;20038;-90
2021/12/03 18:18:40;;;;;;;5.55;3.13;;;;;;;;;;4965037;28;20097;-90
2021/12/03 18:51:31;;;;;;;3.53;2.55;;;;;;;;;;4985364;28;20030;-89
2021/12/03 18:56:31;;;;;;;1.25;1.15;;;;;;;;;;4968960;28;20038;-91
2021/12/03 18:59:03;;;;;;;11.05;1.27;;;;;;;;;;4974213;28;20037;-90
2021/12/03 19:01:31;;;;;;;1.42;1.15;;;;;;;;;;4957256;28;20583;-90
2021/12/03 19:06:44;;;;;;;1.58;1.08;;;;;;;;;;4973650;28;20026;-91
2021/12/03 19:09:25;;;;;;;1.98;1.15;;;;;;;;;;4972053;28;20026;-92
2021/12/03 19:11:58;;;;;;;6.93;1.50;;;7.30;67.40;;;;;;4972442;28;20034;-91
2021/12/03 19:14:24;;;;;;;0.93;0.93;;;;;;;;;;4960069;28;20034;-90
2021/12/03 19:16:51;;;;;;;4.85;1.30;;;;;;;;;;4969879;28;20031;-91
2021/12/03 19:19:17;;;;;;;2.20;1.83;;;;;;;;;;4957257;28;20069;-92
2021/12/03 19:21:45;;;;;;;5.60;1.80;;;7.30;73.30;;;;;;4968215;28;20035;-92
2021/12/03 19:24:14;;;;;;;3.28;1.75;;;7.50;74.00;;;;;;4965691;28;20059;-91
2021/12/03 19:26:44;;;;;;;1.38;1.27;;;;;;;;;;4976209;28;20031;-92
2021/12/03 19:29:13;;;;;;;2.22;1.02;;;7.50;72.30;;;;;;4966329;28;20090;-92
2021/12/03 19:31:39;;;;;;;3.95;1.38;;;;;;;;;;4970749;28;20030;-91
2021/12/03 19:34:05;;;;;;;3.78;2.58;;;;;;;;;;4978404;28;20665;-91
2021/12/03 19:36:38;;;;;;;2.67;2.25;;;;;;;;;;4981090;28;20256;-91
2021/12/03 19:39:04;;;;;;;6.03;2.72;;;;;;;;;;4974948;28;20022;-91
2021/12/03 19:43:58;;;;;;;3.55;2.20;;;;;;;;;;4980205;28;20495;-92
2021/12/03 19:46:46;;;;;;;3.92;3.25;;;;;;;;;;4984072;28;20038;-90
2021/12/03 19:49:34;;;;;;;5.60;2.45;;;;;;;;;;4978685;28;20836;-91
2021/12/03 19:52:04;;;;;;;5.13;2.80;;;;;;;;;;4981427;28;20035;-94
2021/12/03 19:54:30;;;;;;;3.38;2.00;;;;;;;;;;4975518;28;20444;-94
2021/12/03 19:56:56;;;;;;;3.10;1.95;;;;;;;;;;4980697;28;20121;-94
2021/12/03 19:59:22;;;;;;;5.97;1.88;;;;;;;;;;4977796;28;20023;-94
2021/12/03 20:01:48;;;;;;;1.58;1.38;;;;;;;;;;4980321;28;20159;-94
2021/12/03 20:04:14;;;;;;;3.85;2.30;;;;;;;;;;4989302;28;20027;-94
2021/12/03 20:06:43;;;;;;;1.42;1.33;;;;;;;;;;4985209;28;20116;-94
2021/12/03 20:09:14;;;;;;;1.48;0.93;;;;;;;;;;4985763;28;20030;-95
2021/12/03 20:11:44;;;;;;;1.98;0.93;;;;;;;;;;4980281;28;20034;-95
2021/12/03 20:14:15;;;;;;;1.60;1.27;;;;;;;;;;4981552;28;20109;-96
2021/12/03 20:16:50;;;;;;;1.98;1.67;;;;;;;;;;4977864;28;20030;-93
2021/12/03 20:21:56;;;;;;;1.52;0.77;;;;;;;;;;4986328;28;20525;-96
2021/12/03 20:29:39;;;;;;;1.50;0.90;;;;;;;;;;4986854;28;20579;-96
2021/12/03 20:35:04;;;;;;;8.75;2.75;;;;;;;;;;4989757;28;20034;-94
2021/12/03 20:37:33;;;;;;;37.60;12.65;;;;;;;;;;4984745;28;20121;-95
2021/12/03 20:40:09;;;;;;;13.05;4.47;;;;;;;;;;4980628;28;20042;-94
2021/12/03 20:43:05;;;;;;;2.08;1.25;;;;;;;;;;4973664;28;20053;-95
2021/12/03 20:48:16;;;;;;;14.80;5.85;;;;;;;;;;4979811;28;20459;-95
2021/12/03 20:53:34;;;;;;;2.40;1.42;;;;;;;;;;4989264;28;20042;-95
2021/12/03 21:09:47;;;;;;;2.10;1.20;;;;;;;;;;4980471;28;20121;-95
2021/12/03 21:12:24;;;;;;;0.88;0.88;;;;;;;;;;4988553;28;20416;-95
2021/12/03 21:14:56;;;;;;;5.65;1.20;;;;;;;;;;4982978;28;20037;-95
2021/12/03 21:20:16;;;;;;;1.17;1.08;;;;;;;;;;4987054;28;20022;-95
2021/12/03 21:22:49;;;;;;;1.17;1.05;;;;;;;;;;4980801;28;20034;-94
2021/12/03 21:25:19;;;;;;;6.22;1.38;;;;;;;;;;4989295;28;20031;-95
2021/12/03 21:27:53;;;;;;;0.60;0.60;;;;;;;;;;4985600;28;20061;-95
2021/12/03 21:43:32;;;;;;;6.35;1.55;;;;;;;;;;4980851;28;20040;-95
2021/12/03 21:45:59;;;;;;;0.90;0.90;;;;;;;;;;4981911;28;20033;-95
2021/12/03 21:48:25;;;;;;;1.10;1.00;;;;;;;;;;4986905;28;20056;-95
2021/12/03 21:50:51;;;;;;;1.67;1.05;;;;;;;;;;4992045;28;20110;-95
2021/12/03 21:53:16;;;;;;;1.58;1.08;;;;;;;;;;4982457;28;20047;-95
2021/12/03 21:55:46;;;;;;;1.13;1.08;;;;;;;;;;4988211;28;20022;-95
2021/12/03 21:58:13;;;;;;;5.50;1.63;;;;;;;;;;4989403;28;20038;-95
2021/12/03 22:00:39;;;;;;;2.33;1.30;;;;;;;;;;4984312;28;20077;-95
2021/12/03 22:03:05;;;;;;;2.78;1.27;;;;;;;;;;4985182;28;20125;-95
2021/12/03 22:05:31;;;;;;;1.42;1.10;;;;;;;;;;4986211;28;20041;-95
2021/12/03 22:07:57;;;;;;;1.05;0.82;;;;;;;;;;4988601;28;20479;-95
2021/12/03 22:10:23;;;;;;;2.95;1.02;;;;;;;;;;4987586;28;20487;-94
2021/12/03 22:12:49;;;;;;;5.57;0.93;;;;;;;;;;4989392;28;20129;-94
2021/12/03 22:15:16;;;;;;;0.60;0.60;;;;;;;;;;4984626;28;20110;-94
2021/12/03 22:17:42;;;;;;;0.93;0.80;;;;;;;;;;4984478;28;20121;-95
2021/12/03 22:20:08;;;;;;;1.33;0.80;;;;;;;;;;4983773;28;20458;-94
2021/12/03 22:22:34;;;;;;;1.25;1.15;;;;;;;;;;4987166;28;20018;-95
2021/12/03 22:25:00;;;;;;;1.35;0.88;;;;;;;;;;4983807;28;20030;-94
2021/12/03 22:27:26;;;;;;;0.70;0.65;;;;;;;;;;4984040;28;20046;-95
2021/12/03 22:29:52;;;;;;;0.75;0.75;;;;;;;;;;4986670;28;20088;-94
2021/12/03 22:32:19;;;;;;;0.95;0.60;;;7.90;88.60;;;;;;4987321;28;20035;-95
2021/12/03 22:34:45;;;;;;;1.38;1.02;;;;;;;;;;4993513;28;20549;-95
2021/12/03 22:37:11;;;;;;;1.73;0.98;;;;;;;;;;4986152;28;20057;-94
2021/12/03 22:39:38;;;;;;;0.90;0.63;;;;;;;;;;4979255;28;20040;-95
2021/12/03 22:42:04;;;;;;;0.80;0.57;;;;;;;;;;4981346;28;20026;-95
2021/12/03 22:44:30;;;;;;;1.67;0.95;;;;;;;;;;4967681;28;20027;-95
2021/12/03 22:47:12;;;;;;;0.50;0.50;;;;;;;;;;4986556;28;20090;-96
2021/12/03 22:52:21;;;;;;;3.58;1.48;;;;;;;;;;4986109;28;20042;-94
2021/12/03 22:54:47;;;;;;;0.60;0.60;;;;;;;;;;4979879;28;20030;-95
2021/12/03 22:57:16;;;;;;;0.60;0.52;;;8.30;88.00;;;;;;4989124;28;20042;-95
2021/12/03 22:59:42;;;;;;;2.70;1.10;;;;;;;;;;4984652;28;20079;-94
2021/12/03 23:02:10;;;;;;;1.42;1.30;;;8.30;87.70;;;;;;4984126;28;20041;-95
2021/12/03 23:04:39;;;;;;;1.42;1.33;;;;;;;;;;4994359;28;20022;-94
2021/12/03 23:07:05;;;;;;;3.17;0.90;;;;;;;;;;4984335;28;20104;-95
2021/12/03 23:09:32;;;;;;;0.75;0.75;;;;;;;;;;4986894;28;20034;-94
2021/12/03 23:11:59;;;;;;;1.35;0.50;;;;;;;;;;4976027;28;20480;-95
2021/12/03 23:14:26;;;;;;;0.43;0.43;;;8.40;87.80;;;;;;4973134;28;20027;-94
2021/12/03 23:16:52;;;;;;;0.43;0.43;;;;;;;;;;4964895;28;20057;-95
2021/12/03 23:19:20;;;;;;;0.30;0.30;;;8.50;87.60;;;;;;4991787;28;20030;-95
2021/12/03 23:21:46;;;;;;;0.77;0.77;;;;;;;;;;4989146;28;20038;-94